Time;durP1;ratioP1;P1;durP2;ratioP2;P2;SDS_P1;SDS_P2;PMS_P1;PMS_P2;Temp;Humidity;BMP_temperature;BMP_pressure;BME280_temperature;BME280_humidity;BME280_pressure;Samples;Min_cycle;Max_cycle;Signal;HPM_P1;HPM_P2
2021/12/20 00:00:20;;;;;;;18.55;10.95;;;5.00;99.90;;;;;;5083923;28;20029;-74
2021/12/20 00:02:50;;;;;;;20.50;11.70;;;5.00;99.90;;;;;;5083937;28;20028;-74
2021/12/20 00:05:18;;;;;;;19.98;11.55;;;5.00;99.90;;;;;;5083842;28;20025;-73
2021/12/20 00:07:44;;;;;;;19.52;10.70;;;5.10;99.90;;;;;;5083839;28;20025;-74
2021/12/20 00:10:10;;;;;;;20.00;12.15;;;5.00;99.90;;;;;;5083943;28;20039;-73
2021/12/20 00:12:36;;;;;;;21.08;11.35;;;5.00;99.90;;;;;;5084123;28;20020;-73
2021/12/20 00:15:02;;;;;;;18.98;10.77;;;5.10;99.90;;;;;;5083883;28;20291;-73
2021/12/20 00:17:28;;;;;;;18.02;10.95;;;5.10;99.90;;;;;;5082487;28;20024;-74
2021/12/20 00:19:54;;;;;;;17.50;10.32;;;5.10;99.90;;;;;;5083425;28;20075;-73
2021/12/20 00:22:19;;;;;;;19.92;12.13;;;5.10;99.90;;;;;;5083359;28;20044;-73
2021/12/20 00:24:45;;;;;;;18.58;10.90;;;5.20;99.90;;;;;;5083747;28;20219;-73
2021/12/20 00:27:13;;;;;;;19.85;11.68;;;5.20;99.90;;;;;;5083472;28;20066;-73
2021/12/20 00:29:38;;;;;;;18.23;11.43;;;5.20;99.90;;;;;;5083714;28;20207;-73
2021/12/20 00:32:04;;;;;;;20.02;11.52;;;5.20;99.90;;;;;;5083383;28;20051;-73
2021/12/20 00:34:30;;;;;;;18.33;11.13;;;5.20;99.90;;;;;;5083663;28;20021;-73
2021/12/20 00:37:02;;;;;;;17.42;10.48;;;5.20;99.90;;;;;;5083354;28;20032;-73
2021/12/20 00:42:14;;;;;;;14.77;9.65;;;5.30;99.90;;;;;;5082773;28;20024;-74
2021/12/20 00:44:40;;;;;;;14.05;8.90;;;5.30;99.90;;;;;;5087399;28;20043;-73
2021/12/20 00:47:06;;;;;;;15.95;9.70;;;5.30;99.90;;;;;;5085651;28;20025;-74
2021/12/20 00:49:32;;;;;;;14.80;9.32;;;5.40;99.90;;;;;;5087262;28;20024;-73
2021/12/20 00:51:57;;;;;;;13.80;8.73;;;5.40;99.90;;;;;;5087199;28;20401;-74
2021/12/20 00:54:24;;;;;;;13.68;9.05;;;5.40;99.90;;;;;;5087536;28;20094;-74
2021/12/20 00:56:50;;;;;;;12.40;8.52;;;5.50;99.90;;;;;;5096255;28;20008;-73
2021/12/20 00:59:16;;;;;;;14.77;8.85;;;5.40;99.90;;;;;;5099100;28;20195;-73
2021/12/20 01:01:42;;;;;;;13.98;8.65;;;5.50;99.90;;;;;;5097816;28;20029;-73
2021/12/20 01:04:08;;;;;;;11.50;7.78;;;5.50;99.90;;;;;;5095354;28;20077;-73
2021/12/20 01:06:34;;;;;;;13.63;8.77;;;5.50;99.90;;;;;;5091686;28;20091;-74
2021/12/20 01:09:01;;;;;;;12.68;8.57;;;5.50;99.90;;;;;;5087160;28;20086;-73
2021/12/20 01:11:28;;;;;;;11.32;7.60;;;5.50;99.90;;;;;;5087057;28;20020;-73
2021/12/20 01:13:54;;;;;;;11.90;8.15;;;5.60;99.90;;;;;;5086808;28;20028;-74
2021/12/20 01:16:30;;;;;;;12.10;8.10;;;5.50;99.90;;;;;;5086985;28;20203;-74
2021/12/20 01:18:56;;;;;;;13.02;8.07;;;5.50;99.90;;;;;;5086640;28;20021;-74
2021/12/20 01:21:22;;;;;;;13.13;8.48;;;5.60;99.90;;;;;;5086842;28;20041;-73
2021/12/20 01:23:47;;;;;;;13.70;8.52;;;5.60;99.90;;;;;;5086630;28;20024;-74
2021/12/20 01:26:13;;;;;;;15.30;9.60;;;5.60;99.90;;;;;;5085668;28;20211;-75
2021/12/20 01:28:42;;;;;;;18.00;10.13;;;5.60;99.90;;;;;;5086334;28;20092;-73
2021/12/20 01:31:08;;;;;;;19.80;11.20;;;5.60;99.90;;;;;;5086491;28;20203;-73
2021/12/20 01:33:34;;;;;;;21.35;11.77;;;5.50;99.90;;;;;;5086276;28;20024;-73
2021/12/20 01:36:00;;;;;;;19.73;10.68;;;5.30;99.90;;;;;;5086557;28;20024;-73
2021/12/20 01:38:25;;;;;;;24.52;11.48;;;5.40;99.90;;;;;;5085241;28;20039;-72
2021/12/20 01:40:52;;;;;;;20.50;11.77;;;5.40;99.90;;;;;;5086256;28;20103;-73
2021/12/20 01:43:18;;;;;;;22.52;12.70;;;5.40;99.90;;;;;;5086324;28;20016;-73
2021/12/20 01:45:47;;;;;;;24.17;12.30;;;5.40;99.90;;;;;;5086225;28;20032;-73
2021/12/20 01:48:15;;;;;;;25.17;12.95;;;5.30;99.90;;;;;;5083031;28;20048;-73
2021/12/20 01:53:25;;;;;;;23.73;12.75;;;5.30;99.90;;;;;;5084433;28;20028;-73
2021/12/20 01:55:52;;;;;;;20.52;12.00;;;5.30;99.90;;;;;;5084221;28;20020;-72
2021/12/20 01:58:18;;;;;;;21.73;12.20;;;5.30;99.90;;;;;;5085957;28;20327;-73
2021/12/20 02:03:33;;;;;;;22.80;12.98;;;5.40;99.90;;;;;;5085318;28;20040;-73
2021/12/20 02:06:03;;;;;;;23.77;13.13;;;5.40;99.90;;;;;;5084998;28;20036;-73
2021/12/20 02:08:29;;;;;;;22.08;12.50;;;5.40;99.90;;;;;;5085948;28;20017;-73
2021/12/20 02:10:58;;;;;;;22.75;12.43;;;5.40;99.90;;;;;;5085826;28;20043;-74
2021/12/20 02:13:28;;;;;;;22.70;12.95;;;5.40;99.90;;;;;;5085633;28;20029;-73
2021/12/20 02:15:55;;;;;;;22.00;11.35;;;5.50;99.90;;;;;;5084772;28;20028;-73
2021/12/20 02:18:22;;;;;;;21.67;11.63;;;5.50;99.90;;;;;;5084689;28;20021;-73
2021/12/20 02:20:48;;;;;;;9.45;6.45;;;5.60;99.90;;;;;;5085201;28;20049;-73
2021/12/20 02:23:13;;;;;;;9.90;6.65;;;5.70;99.90;;;;;;5084494;28;20020;-73
2021/12/20 02:25:39;;;;;;;9.75;6.95;;;5.70;99.90;;;;;;5085551;28;20319;-73
2021/12/20 02:28:08;;;;;;;8.60;5.47;;;5.70;99.90;;;;;;5085299;28;20017;-73
2021/12/20 02:38:52;;;;;;;10.95;6.22;;;5.80;99.90;;;;;;5064365;28;20195;-73
2021/12/20 02:41:27;;;;;;;9.68;6.10;;;5.90;99.90;;;;;;5065089;28;20471;-74
2021/12/20 02:43:56;;;;;;;8.88;5.43;;;5.90;99.90;;;;;;5065065;28;20025;-73
2021/12/20 02:49:17;;;;;;;6.50;5.45;;;5.90;99.90;;;;;;5083806;28;20012;-73
2021/12/20 02:51:44;;;;;;;6.63;5.25;;;5.90;99.90;;;;;;5085047;28;20056;-72
2021/12/20 02:54:12;;;;;;;8.02;5.88;;;6.00;99.90;;;;;;5084767;28;20012;-73
2021/12/20 02:56:38;;;;;;;10.35;5.80;;;6.00;99.90;;;;;;5084627;28;20044;-73
2021/12/20 02:59:06;;;;;;;8.18;6.00;;;6.00;99.90;;;;;;5084814;28;20027;-73
2021/12/20 03:01:32;;;;;;;8.68;6.53;;;6.00;99.90;;;;;;5084826;28;20024;-73
2021/12/20 03:04:00;;;;;;;8.50;6.35;;;6.00;99.90;;;;;;5084876;28;20073;-73
2021/12/20 03:06:47;;;;;;;7.68;5.63;;;6.00;99.90;;;;;;5084351;28;20034;-72
2021/12/20 03:09:17;;;;;;;8.32;5.70;;;6.00;99.90;;;;;;5083655;28;20013;-73
2021/12/20 03:11:46;;;;;;;7.20;5.50;;;6.00;99.90;;;;;;5084811;28;20024;-73
2021/12/20 03:14:19;;;;;;;6.38;5.25;;;6.00;99.90;;;;;;5083290;28;20027;-74
2021/12/20 03:16:45;;;;;;;7.47;5.47;;;6.10;99.90;;;;;;5083709;28;20062;-73
2021/12/20 03:19:11;;;;;;;8.45;5.80;;;6.10;99.90;;;;;;5083181;28;20029;-73
2021/12/20 03:21:37;;;;;;;6.13;4.63;;;6.10;99.90;;;;;;5084165;28;20053;-73
2021/12/20 03:24:04;;;;;;;6.70;4.95;;;6.10;99.90;;;;;;5084335;28;20040;-72
2021/12/20 03:26:30;;;;;;;5.22;4.25;;;6.10;99.90;;;;;;5066160;28;20255;-73
2021/12/20 03:28:55;;;;;;;7.22;4.35;;;6.10;99.90;;;;;;5083166;28;20032;-73
2021/12/20 03:31:21;;;;;;;5.22;3.83;;;6.10;99.90;;;;;;5084134;28;20012;-73
2021/12/20 03:33:47;;;;;;;8.00;3.92;;;6.10;99.90;;;;;;5084208;28;20061;-73
2021/12/20 03:36:13;;;;;;;5.55;4.25;;;6.10;99.90;;;;;;5084131;28;20036;-73
2021/12/20 03:38:39;;;;;;;5.63;4.50;;;6.10;99.90;;;;;;5084314;28;20024;-73
2021/12/20 03:41:05;;;;;;;3.25;2.90;;;6.10;99.90;;;;;;5084032;28;20036;-72
2021/12/20 03:43:31;;;;;;;4.90;3.28;;;6.10;99.90;;;;;;5083044;28;20220;-72
2021/12/20 03:45:59;;;;;;;3.92;3.13;;;6.10;99.90;;;;;;5083595;28;20247;-73
2021/12/20 03:48:26;;;;;;;3.28;2.88;;;6.10;99.90;;;;;;5077835;28;20013;-74
2021/12/20 03:50:52;;;;;;;4.10;2.70;;;6.10;99.90;;;;;;5062929;28;20028;-73
2021/12/20 03:53:18;;;;;;;2.72;2.30;;;6.10;99.90;;;;;;5079453;28;20032;-73
2021/12/20 03:55:44;;;;;;;3.97;2.72;;;6.10;99.90;;;;;;5064093;28;20207;-72
2021/12/20 03:58:09;;;;;;;5.07;3.28;;;6.10;99.90;;;;;;5062681;28;20028;-73
2021/12/20 04:00:35;;;;;;;5.32;3.22;;;6.10;99.90;;;;;;5079305;28;20326;-73
2021/12/20 04:03:04;;;;;;;3.63;2.88;;;6.10;99.90;;;;;;5079601;28;20088;-73
2021/12/20 04:05:30;;;;;;;4.43;3.10;;;6.10;99.90;;;;;;5063725;28;20099;-72
2021/12/20 04:07:55;;;;;;;4.60;3.75;;;6.10;99.90;;;;;;5068672;28;20096;-72
2021/12/20 04:10:21;;;;;;;5.80;3.75;;;6.10;99.90;;;;;;5076178;28;20080;-73
2021/12/20 04:12:47;;;;;;;5.45;4.13;;;6.10;99.90;;;;;;5074307;28;20020;-73
2021/12/20 04:15:12;;;;;;;5.13;3.95;;;6.10;99.90;;;;;;5073605;28;20049;-73
2021/12/20 04:17:38;;;;;;;5.00;4.18;;;6.10;99.90;;;;;;5071452;28;20036;-73
2021/12/20 04:20:04;;;;;;;5.35;4.47;;;6.10;99.90;;;;;;5068486;28;20362;-73
2021/12/20 04:22:30;;;;;;;6.80;4.78;;;6.10;99.90;;;;;;5067883;28;20095;-73
2021/12/20 04:24:55;;;;;;;6.75;4.68;;;6.10;99.90;;;;;;5083487;28;20207;-73
2021/12/20 04:27:21;;;;;;;7.45;5.45;;;6.10;99.90;;;;;;5067464;28;20293;-73
2021/12/20 04:29:47;;;;;;;7.63;5.40;;;6.10;99.90;;;;;;5067806;28;20031;-73
2021/12/20 04:32:13;;;;;;;7.07;5.20;;;6.10;99.90;;;;;;5086587;28;20021;-73
2021/12/20 04:34:39;;;;;;;5.47;4.50;;;6.10;99.90;;;;;;5087451;28;20027;-72
2021/12/20 04:37:07;;;;;;;7.15;5.40;;;6.10;99.90;;;;;;5087506;28;20020;-73
2021/12/20 04:39:33;;;;;;;6.68;4.88;;;6.20;99.90;;;;;;5087243;28;20299;-73
2021/12/20 04:42:00;;;;;;;7.90;4.95;;;6.20;99.90;;;;;;5087463;28;20038;-74
2021/12/20 04:44:26;;;;;;;6.45;4.60;;;6.20;99.90;;;;;;5087457;28;20017;-73
2021/12/20 04:46:51;;;;;;;8.55;5.30;;;6.20;99.90;;;;;;5087111;28;20035;-73
2021/12/20 04:49:17;;;;;;;9.35;5.15;;;6.20;99.90;;;;;;5085613;28;20374;-73
2021/12/20 04:51:43;;;;;;;9.70;5.25;;;6.20;99.90;;;;;;5087377;28;20033;-73
2021/12/20 04:54:09;;;;;;;6.40;4.50;;;6.20;99.90;;;;;;5087286;28;20024;-72
2021/12/20 04:56:35;;;;;;;8.45;5.35;;;6.20;99.90;;;;;;5086834;28;20017;-73
2021/12/20 04:59:01;;;;;;;9.18;4.68;;;6.20;99.90;;;;;;5087247;28;20020;-73
2021/12/20 05:01:26;;;;;;;10.38;5.00;;;6.20;99.90;;;;;;5087129;28;20082;-73
2021/12/20 05:03:52;;;;;;;12.23;5.28;;;6.20;99.90;;;;;;5087069;28;20070;-73
2021/12/20 05:06:18;;;;;;;8.93;4.97;;;6.30;99.90;;;;;;5086575;28;20027;-73
2021/12/20 05:08:48;;;;;;;9.65;4.43;;;6.20;99.90;;;;;;5086681;28;20028;-72
2021/12/20 05:11:14;;;;;;;7.55;4.65;;;6.20;99.90;;;;;;5085879;28;20080;-73
2021/12/20 05:13:40;;;;;;;5.53;3.90;;;6.20;99.90;;;;;;5085695;28;20016;-73
2021/12/20 05:16:06;;;;;;;8.90;4.38;;;6.20;99.90;;;;;;5086709;28;20017;-73
2021/12/20 05:18:32;;;;;;;11.55;4.80;;;6.20;99.90;;;;;;5086743;28;20036;-74
2021/12/20 05:20:57;;;;;;;7.70;4.15;;;6.20;99.90;;;;;;5086575;28;20108;-74
2021/12/20 05:23:23;;;;;;;9.48;4.43;;;6.30;99.90;;;;;;5086722;28;20322;-73
2021/12/20 05:25:49;;;;;;;5.35;4.25;;;6.20;99.90;;;;;;5086540;28;20020;-72
2021/12/20 05:28:15;;;;;;;10.05;4.50;;;6.20;99.90;;;;;;5086159;28;20080;-73
2021/12/20 05:30:41;;;;;;;9.05;4.32;;;6.20;99.90;;;;;;5086373;28;20130;-73
2021/12/20 05:33:07;;;;;;;6.10;3.50;;;6.30;99.90;;;;;;5086440;28;20020;-73
2021/12/20 05:35:33;;;;;;;4.85;3.10;;;6.40;99.90;;;;;;5086576;28;20024;-72
2021/12/20 05:37:59;;;;;;;6.75;3.60;;;6.40;99.90;;;;;;5085413;28;20032;-73
2021/12/20 05:40:25;;;;;;;5.63;3.25;;;6.40;99.90;;;;;;5086388;28;20287;-73
2021/12/20 05:42:51;;;;;;;9.05;3.60;;;6.40;99.90;;;;;;5085285;28;20024;-73
2021/12/20 05:45:18;;;;;;;6.45;3.10;;;6.40;99.90;;;;;;5086139;28;20299;-73
2021/12/20 05:47:45;;;;;;;4.28;3.25;;;6.40;99.90;;;;;;5084791;28;20032;-73
2021/12/20 05:50:13;;;;;;;7.53;3.35;;;6.50;99.90;;;;;;5084858;28;20024;-73
2021/12/20 05:52:39;;;;;;;4.35;3.22;;;6.50;99.90;;;;;;5086291;28;20085;-73
2021/12/20 05:55:06;;;;;;;5.75;4.13;;;6.50;99.90;;;;;;5084907;28;20307;-73
2021/12/20 05:57:33;;;;;;;5.75;4.20;;;6.50;99.90;;;;;;5084545;28;20020;-73
2021/12/20 06:00:00;;;;;;;6.28;4.30;;;6.40;99.90;;;;;;5086070;28;20060;-73
2021/12/20 06:02:26;;;;;;;6.15;4.00;;;6.40;99.90;;;;;;5084632;28;20028;-72
2021/12/20 06:04:51;;;;;;;4.20;3.78;;;6.40;99.90;;;;;;5085961;28;20262;-74
2021/12/20 06:07:19;;;;;;;7.72;4.10;;;6.40;99.90;;;;;;5085706;28;20211;-73
2021/12/20 06:09:46;;;;;;;7.93;4.20;;;6.50;99.90;;;;;;5084562;28;20048;-73
2021/12/20 06:12:12;;;;;;;6.72;4.15;;;6.50;99.90;;;;;;5085952;28;20070;-73
2021/12/20 06:14:37;;;;;;;9.95;4.95;;;6.50;99.90;;;;;;5085782;28;20296;-73
2021/12/20 06:17:03;;;;;;;6.90;4.28;;;6.50;99.90;;;;;;5067816;28;20036;-73
2021/12/20 06:19:29;;;;;;;6.50;4.00;;;6.40;99.90;;;;;;5084457;28;20235;-73
2021/12/20 06:21:55;;;;;;;7.05;3.75;;;6.40;99.90;;;;;;5067635;28;20041;-73
2021/12/20 06:24:21;;;;;;;4.95;3.47;;;6.40;99.90;;;;;;5085690;28;20032;-73
2021/12/20 06:26:47;;;;;;;6.38;3.88;;;6.40;99.90;;;;;;5085051;28;20036;-73
2021/12/20 06:29:13;;;;;;;4.20;2.65;;;6.40;99.90;;;;;;5085137;28;20079;-73
2021/12/20 06:31:38;;;;;;;7.53;2.78;;;6.40;99.90;;;;;;5085177;28;20043;-73
2021/12/20 06:34:04;;;;;;;2.72;2.13;;;6.40;99.90;;;;;;5083716;28;20091;-73
2021/12/20 06:36:31;;;;;;;3.85;1.90;;;6.40;99.90;;;;;;5084333;28;20025;-73
2021/12/20 06:38:57;;;;;;;3.28;1.80;;;6.40;99.90;;;;;;5085109;28;20021;-73
2021/12/20 06:41:24;;;;;;;2.78;1.60;;;6.40;99.90;;;;;;5084564;28;20025;-73
2021/12/20 06:43:51;;;;;;;3.40;1.13;;;6.40;99.90;;;;;;5084090;28;20024;-73
2021/12/20 06:46:18;;;;;;;3.05;1.20;;;6.40;99.90;;;;;;5084678;28;20035;-73
2021/12/20 06:48:44;;;;;;;3.13;1.58;;;6.40;99.90;;;;;;5083765;28;20044;-72
2021/12/20 06:51:10;;;;;;;2.75;1.17;;;6.40;99.90;;;;;;5083703;28;20295;-73
2021/12/20 06:53:36;;;;;;;3.40;1.20;;;6.40;99.90;;;;;;5084999;28;20020;-73
2021/12/20 06:56:02;;;;;;;4.70;1.90;;;6.40;99.90;;;;;;5083917;28;20028;-73
2021/12/20 06:58:27;;;;;;;2.45;1.63;;;6.40;99.90;;;;;;5084430;28;20070;-73
2021/12/20 07:00:54;;;;;;;1.55;1.38;;;6.40;99.90;;;;;;5084804;28;20223;-73
2021/12/20 07:03:21;;;;;;;1.45;1.35;;;6.40;99.90;;;;;;5084812;28;20020;-73
2021/12/20 07:05:48;;;;;;;2.13;1.65;;;6.40;99.90;;;;;;5083773;28;20024;-73
2021/12/20 07:08:14;;;;;;;4.15;2.50;;;6.40;99.90;;;;;;5084426;28;20118;-73
2021/12/20 07:10:40;;;;;;;4.97;2.55;;;6.40;99.90;;;;;;5083527;28;20028;-73
2021/12/20 07:13:07;;;;;;;7.38;2.65;;;6.40;99.90;;;;;;5083770;28;20212;-73
2021/12/20 07:15:33;;;;;;;3.63;2.20;;;6.40;99.90;;;;;;5084579;28;20031;-73
2021/12/20 07:17:59;;;;;;;2.67;2.30;;;6.40;99.90;;;;;;5084416;28;20032;-73
2021/12/20 07:20:24;;;;;;;3.10;2.67;;;6.40;99.90;;;;;;5088069;28;20064;-72
2021/12/20 07:22:50;;;;;;;3.80;2.65;;;6.30;99.90;;;;;;5096350;28;20043;-72
2021/12/20 07:25:18;;;;;;;4.45;3.05;;;6.30;99.90;;;;;;5094469;28;20024;-72
2021/12/20 07:27:43;;;;;;;4.78;3.13;;;6.30;99.90;;;;;;5093550;28;20024;-73
2021/12/20 07:30:10;;;;;;;4.78;3.35;;;6.30;99.90;;;;;;5090118;28;20077;-73
2021/12/20 07:32:35;;;;;;;4.55;3.03;;;6.30;99.90;;;;;;5086660;28;20062;-73
2021/12/20 07:35:01;;;;;;;5.03;2.58;;;6.40;99.90;;;;;;5083491;28;20255;-73
2021/12/20 07:37:27;;;;;;;5.95;3.58;;;6.30;99.90;;;;;;5084017;28;20023;-72
2021/12/20 07:39:53;;;;;;;3.83;3.10;;;6.30;99.90;;;;;;5083840;28;20020;-73
2021/12/20 07:42:19;;;;;;;4.80;3.53;;;6.40;99.90;;;;;;5084007;28;20069;-73
2021/12/20 07:44:45;;;;;;;6.13;3.15;;;6.40;99.90;;;;;;5083944;28;20036;-73
2021/12/20 07:47:11;;;;;;;5.47;3.00;;;6.40;99.90;;;;;;5083902;28;20182;-73
2021/12/20 07:49:37;;;;;;;4.07;3.40;;;6.40;99.90;;;;;;5084020;28;20074;-74
2021/12/20 07:52:04;;;;;;;5.75;2.70;;;6.40;99.90;;;;;;5080785;28;20219;-74
2021/12/20 07:54:30;;;;;;;4.47;2.65;;;6.40;99.90;;;;;;5084131;28;20032;-74
2021/12/20 07:56:57;;;;;;;3.65;2.20;;;6.40;99.90;;;;;;5082744;28;20207;-73
2021/12/20 07:59:22;;;;;;;7.90;2.50;;;6.40;99.90;;;;;;5083854;28;20047;-73
2021/12/20 08:01:49;;;;;;;4.88;2.67;;;6.40;99.90;;;;;;5082637;28;20311;-73
2021/12/20 08:04:15;;;;;;;3.85;2.60;;;6.40;99.90;;;;;;5082878;28;20017;-73
2021/12/20 08:06:43;;;;;;;3.08;2.35;;;6.30;99.90;;;;;;5082658;28;20024;-73
2021/12/20 08:09:10;;;;;;;3.05;2.28;;;6.30;99.90;;;;;;5082665;28;20023;-72
2021/12/20 08:11:36;;;;;;;3.38;2.08;;;6.30;99.90;;;;;;5084031;28;20327;-73
2021/12/20 08:14:03;;;;;;;2.25;1.60;;;6.30;99.90;;;;;;5082931;28;20024;-73
2021/12/20 08:16:28;;;;;;;1.27;0.88;;;6.30;99.90;;;;;;5082780;28;20028;-73
2021/12/20 08:18:54;;;;;;;4.35;1.17;;;6.30;99.90;;;;;;5083326;28;20021;-73
2021/12/20 08:21:21;;;;;;;1.88;0.80;;;6.40;99.90;;;;;;5082264;28;20056;-73
2021/12/20 08:23:47;;;;;;;5.53;0.93;;;6.40;99.90;;;;;;5083949;28;20043;-74
2021/12/20 08:26:13;;;;;;;1.33;0.95;;;6.40;99.90;;;;;;5082760;28;20020;-72
2021/12/20 08:28:39;;;;;;;2.00;1.20;;;6.40;99.90;;;;;;5083389;28;20034;-72
2021/12/20 08:31:06;;;;;;;2.60;1.00;;;6.40;99.90;;;;;;5083260;28;20077;-73
2021/12/20 08:33:33;;;;;;;3.85;0.80;;;6.40;99.90;;;;;;5082697;28;20479;-73
2021/12/20 08:36:01;;;;;;;3.28;1.42;;;6.40;99.90;;;;;;5083510;28;20021;-74
2021/12/20 08:38:26;;;;;;;3.50;1.17;;;6.50;99.90;;;;;;5065938;28;20093;-73
2021/12/20 08:40:52;;;;;;;1.88;1.13;;;6.50;99.90;;;;;;5082266;28;20024;-73
2021/12/20 08:43:20;;;;;;;2.00;0.77;;;6.50;99.90;;;;;;5083656;28;20028;-72
2021/12/20 08:45:46;;;;;;;2.53;1.00;;;6.50;99.90;;;;;;5083127;28;20043;-73
2021/12/20 08:48:12;;;;;;;0.65;0.57;;;6.50;99.90;;;;;;5083433;28;20021;-74
2021/12/20 08:50:38;;;;;;;2.50;0.80;;;6.50;99.90;;;;;;5083410;28;20048;-73
2021/12/20 08:53:05;;;;;;;0.60;0.60;;;6.50;99.90;;;;;;5082231;28;20105;-73
2021/12/20 08:55:30;;;;;;;0.60;0.60;;;6.50;99.90;;;;;;5082479;28;20093;-73
2021/12/20 08:57:56;;;;;;;2.42;0.88;;;6.50;99.90;;;;;;5081822;28;20025;-73
2021/12/20 09:00:25;;;;;;;0.75;0.70;;;6.50;99.90;;;;;;5083069;28;20061;-74
2021/12/20 09:02:51;;;;;;;1.90;0.80;;;6.50;99.90;;;;;;5065962;28;20091;-74
2021/12/20 09:05:19;;;;;;;2.60;0.80;;;6.50;99.90;;;;;;5069128;28;20027;-73
2021/12/20 09:07:45;;;;;;;1.35;0.65;;;6.60;99.90;;;;;;5087007;28;20024;-74
2021/12/20 09:10:14;;;;;;;0.93;0.85;;;6.60;99.90;;;;;;5086743;28;20188;-75
2021/12/20 09:12:41;;;;;;;4.00;0.90;;;6.60;99.90;;;;;;5085673;28;20106;-74
2021/12/20 09:15:08;;;;;;;3.95;1.10;;;6.60;99.90;;;;;;5068860;28;20042;-74
2021/12/20 09:17:34;;;;;;;2.38;1.45;;;6.60;99.90;;;;;;5085521;28;20031;-74
2021/12/20 09:20:00;;;;;;;2.10;1.48;;;6.60;99.90;;;;;;5069115;28;20358;-74
2021/12/20 09:22:27;;;;;;;4.82;1.65;;;6.60;99.90;;;;;;5086943;28;20063;-72
2021/12/20 09:24:52;;;;;;;5.07;1.75;;;6.60;99.90;;;;;;5086758;28;20017;-72
2021/12/20 09:27:18;;;;;;;3.30;2.03;;;6.60;99.90;;;;;;5085144;28;20091;-73
2021/12/20 09:29:43;;;;;;;6.57;2.17;;;6.70;99.90;;;;;;5085815;28;20025;-74
2021/12/20 09:32:10;;;;;;;2.90;2.10;;;6.60;99.90;;;;;;5086204;28;20051;-73
2021/12/20 09:34:35;;;;;;;3.35;2.45;;;6.60;99.90;;;;;;5086469;28;20051;-73
2021/12/20 09:37:05;;;;;;;4.82;3.00;;;6.60;99.90;;;;;;5086515;28;20303;-73
2021/12/20 09:39:32;;;;;;;6.00;3.05;;;6.70;99.90;;;;;;5085513;28;20024;-73
2021/12/20 09:42:01;;;;;;;3.90;3.03;;;6.70;99.90;;;;;;5085009;28;20307;-74
2021/12/20 09:44:27;;;;;;;5.45;3.20;;;6.70;99.90;;;;;;5086265;28;20059;-74
2021/12/20 09:46:58;;;;;;;4.38;3.72;;;6.70;99.90;;;;;;5085821;28;20031;-74
2021/12/20 09:49:25;;;;;;;4.20;3.00;;;6.70;99.90;;;;;;5085983;28;20315;-74
2021/12/20 09:51:51;;;;;;;6.55;3.58;;;6.80;99.90;;;;;;5085320;28;20084;-73
2021/12/20 09:54:17;;;;;;;5.05;3.80;;;6.70;99.90;;;;;;5084418;28;20070;-73
2021/12/20 09:56:43;;;;;;;8.13;3.22;;;6.70;99.90;;;;;;5087027;28;20029;-73
2021/12/20 09:59:16;;;;;;;3.15;2.22;;;6.80;99.90;;;;;;5087071;28;20020;-73
2021/12/20 10:01:44;;;;;;;5.32;2.10;;;6.80;99.90;;;;;;5085771;28;20350;-73
2021/12/20 10:04:10;;;;;;;2.47;1.88;;;6.70;99.90;;;;;;5086475;28;20024;-75
2021/12/20 10:06:36;;;;;;;3.47;2.10;;;6.70;99.90;;;;;;5086031;28;20013;-74
2021/12/20 10:09:11;;;;;;;2.33;1.95;;;6.70;99.90;;;;;;5085828;28;20029;-74
2021/12/20 10:11:38;;;;;;;7.45;2.78;;;6.70;99.90;;;;;;5085835;28;20025;-74
2021/12/20 10:14:14;;;;;;;5.15;2.72;;;6.70;99.90;;;;;;5084858;28;20032;-75
2021/12/20 10:16:44;;;;;;;3.67;2.30;;;6.70;99.90;;;;;;5084652;28;20027;-74
2021/12/20 10:19:31;;;;;;;3.88;2.35;;;6.70;99.90;;;;;;5085766;28;20024;-74
2021/12/20 10:21:59;;;;;;;3.70;2.30;;;6.70;99.90;;;;;;5084517;28;20044;-74
2021/12/20 10:24:34;;;;;;;2.67;1.83;;;6.70;99.90;;;;;;5085755;28;20025;-73
2021/12/20 10:27:00;;;;;;;1.85;1.52;;;6.80;99.90;;;;;;5067706;28;20206;-74
2021/12/20 10:29:26;;;;;;;4.55;1.70;;;6.80;99.90;;;;;;5084275;28;20035;-73
2021/12/20 10:31:53;;;;;;;4.00;2.00;;;6.70;99.90;;;;;;5084504;28;20025;-74
2021/12/20 10:34:31;;;;;;;2.47;1.55;;;6.80;99.90;;;;;;5094555;28;20016;-74
2021/12/20 10:36:58;;;;;;;1.73;1.30;;;6.80;99.90;;;;;;5097501;28;20020;-71
2021/12/20 10:39:43;;;;;;;1.15;0.80;;;6.80;99.90;;;;;;5095533;28;20020;-75
2021/12/20 10:42:26;;;;;;;0.93;0.82;;;6.80;99.90;;;;;;5075220;28;20024;-75
2021/12/20 10:45:14;;;;;;;1.20;1.05;;;6.80;99.90;;;;;;5092572;28;20026;-72
2021/12/20 10:47:42;;;;;;;1.65;0.60;;;6.80;99.90;;;;;;5088010;28;20065;-73
2021/12/20 10:50:29;;;;;;;0.82;0.57;;;6.80;99.90;;;;;;5067911;28;20029;-73
2021/12/20 10:53:20;;;;;;;2.05;0.55;;;6.80;99.90;;;;;;5084050;28;20016;-73
2021/12/20 10:55:51;;;;;;;1.13;0.70;;;6.80;99.90;;;;;;5083948;28;20070;-73
2021/12/20 10:58:38;;;;;;;1.43;0.90;;;6.80;99.90;;;;;;5083585;28;20032;-73
2021/12/20 11:01:28;;;;;;;1.65;0.90;;;6.80;99.90;;;;;;5083839;28;20021;-73
2021/12/20 11:03:58;;;;;;;0.93;0.70;;;6.80;99.90;;;;;;5083472;28;20299;-75
2021/12/20 11:06:26;;;;;;;3.80;0.70;;;6.90;99.90;;;;;;5083577;28;20035;-74
2021/12/20 11:09:09;;;;;;;1.00;0.70;;;6.90;99.90;;;;;;5083691;28;20027;-75
2021/12/20 11:11:39;;;;;;;1.13;0.50;;;6.90;99.90;;;;;;5084489;28;20192;-75
2021/12/20 11:14:07;;;;;;;0.93;0.68;;;6.90;99.90;;;;;;5084914;28;20024;-73
2021/12/20 11:16:37;;;;;;;1.17;0.70;;;6.90;99.90;;;;;;5083455;28;20087;-73
2021/12/20 11:19:30;;;;;;;1.67;0.90;;;7.00;99.90;;;;;;5067103;28;20032;-74
2021/12/20 11:21:58;;;;;;;;;;;7.00;99.90;;;;;;5084851;28;20590;-73
2021/12/20 11:24:28;;;;;;;1.70;0.85;;;7.00;99.90;;;;;;5084576;28;19939;-74
2021/12/20 11:26:56;;;;;;;1.98;0.70;;;7.10;99.90;;;;;;5066057;28;20020;-74
2021/12/20 11:29:22;;;;;;;1.92;0.80;;;7.00;99.90;;;;;;5083315;28;20028;-73
2021/12/20 11:31:50;;;;;;;0.77;0.77;;;7.00;99.90;;;;;;5083973;28;20252;-73
2021/12/20 11:34:16;;;;;;;2.40;0.93;;;7.00;99.90;;;;;;5083264;28;20031;-73
2021/12/20 11:36:42;;;;;;;1.95;1.33;;;7.00;99.90;;;;;;5084120;28;20024;-73
2021/12/20 11:39:08;;;;;;;1.70;1.00;;;6.90;99.90;;;;;;5083057;28;20013;-73
2021/12/20 11:41:34;;;;;;;1.45;1.10;;;6.90;99.90;;;;;;5083150;28;20028;-73
2021/12/20 11:44:02;;;;;;;3.00;1.40;;;6.90;99.90;;;;;;5083120;28;20047;-73
2021/12/20 11:46:36;;;;;;;1.77;0.98;;;6.90;99.90;;;;;;5082435;28;20237;-73
2021/12/20 11:49:02;;;;;;;1.98;1.50;;;7.00;99.90;;;;;;5084189;28;20238;-75
2021/12/20 11:51:28;;;;;;;1.42;1.13;;;6.90;99.90;;;;;;5083969;28;20304;-74
2021/12/20 11:53:53;;;;;;;1.25;0.90;;;6.90;99.90;;;;;;5083650;28;20031;-75
2021/12/20 11:56:36;;;;;;;1.80;0.70;;;7.00;99.90;;;;;;5080971;28;20027;-74
2021/12/20 11:59:01;;;;;;;1.00;0.88;;;7.00;99.90;;;;;;5083963;28;20058;-74
2021/12/20 12:01:27;;;;;;;2.05;1.35;;;7.00;99.90;;;;;;5083719;28;20323;-74
2021/12/20 12:03:57;;;;;;;1.42;1.27;;;7.00;99.90;;;;;;5083921;28;20022;-75
2021/12/20 12:06:26;;;;;;;1.50;1.40;;;7.00;99.90;;;;;;5065978;28;20345;-74
2021/12/20 12:08:58;;;;;;;2.45;1.50;;;7.00;99.90;;;;;;5083827;28;20048;-74
2021/12/20 12:11:31;;;;;;;2.00;1.40;;;6.90;99.90;;;;;;5066219;28;20016;-74
2021/12/20 12:14:07;;;;;;;1.92;1.58;;;7.00;99.90;;;;;;5082884;28;20016;-73
2021/12/20 12:16:56;;;;;;;1.75;1.35;;;6.90;99.90;;;;;;5083583;28;20043;-72
2021/12/20 12:19:48;;;;;;;2.42;1.70;;;7.00;99.90;;;;;;5069330;28;20043;-73
2021/12/20 12:22:37;;;;;;;3.92;2.10;;;7.00;99.90;;;;;;5069490;28;20040;-74
2021/12/20 12:25:08;;;;;;;5.13;2.30;;;7.00;99.90;;;;;;5082963;28;20024;-75
2021/12/20 12:27:36;;;;;;;2.67;2.47;;;7.00;99.90;;;;;;5083501;28;20134;-73
2021/12/20 12:30:28;;;;;;;3.00;2.53;;;7.00;99.90;;;;;;5082329;28;20032;-75
2021/12/20 12:33:13;;;;;;;;;;;6.90;99.90;;;;;;5080732;28;20029;-75
2021/12/20 12:35:53;;;;;;;3.05;2.47;;;6.90;99.90;;;;;;5081446;28;19936;-74
2021/12/20 12:38:27;;;;;;;3.40;3.00;;;7.00;99.90;;;;;;5084163;28;20070;-74
2021/12/20 12:41:12;;;;;;;3.13;2.80;;;6.90;99.90;;;;;;5086563;28;20039;-73
2021/12/20 12:44:06;;;;;;;3.28;2.97;;;6.90;99.90;;;;;;5085986;28;20058;-73
2021/12/20 12:46:59;;;;;;;3.95;3.17;;;7.00;99.90;;;;;;5086034;28;20024;-74
2021/12/20 12:49:31;;;;;;;4.00;3.28;;;7.00;99.90;;;;;;5086467;28;20188;-75
2021/12/20 12:52:23;;;;;;;4.25;3.20;;;7.00;99.90;;;;;;5087451;28;20307;-74
2021/12/20 12:54:57;;;;;;;;;;;7.00;99.90;;;;;;5086663;28;20134;-73
2021/12/20 12:57:30;;;;;;;4.53;3.72;;;6.90;99.90;;;;;;5084477;28;19991;-75
2021/12/20 13:00:05;;;;;;;5.30;3.80;;;6.90;99.90;;;;;;5085728;28;20387;-74
2021/12/20 13:02:36;;;;;;;5.60;4.18;;;6.90;99.90;;;;;;5087214;28;20039;-74
2021/12/20 13:05:13;;;;;;;8.57;4.83;;;6.90;99.90;;;;;;5085970;28;20047;-73
2021/12/20 13:07:58;;;;;;;8.18;4.10;;;7.00;99.90;;;;;;5085797;28;20200;-74
2021/12/20 13:10:32;;;;;;;5.00;4.32;;;6.90;99.90;;;;;;5085986;28;20031;-74
2021/12/20 13:13:09;;;;;;;5.03;3.85;;;7.00;99.90;;;;;;5085456;28;20053;-74
2021/12/20 13:15:42;;;;;;;4.97;3.45;;;7.00;99.90;;;;;;5085690;28;20031;-74
2021/12/20 13:18:16;;;;;;;6.47;4.35;;;7.00;99.90;;;;;;5086066;28;20031;-73
2021/12/20 13:20:50;;;;;;;3.72;3.30;;;7.00;99.90;;;;;;5085544;28;20040;-74